TAF Text Data
IDs:
Format:
Raw Decoded Include METAR

Data at: 0405 UTC 24 Jun 2021

KAIA 232320Z 2400/2424 27012G22KT P6SM VCTS SCT100CB
  FM240200 15009KT P6SM BKN150
  FM240900 33008KT P6SM BKN150
  FM241500 05012G23KT P6SM SCT100
  FM241900 08012G23KT P6SM BKN080